Ridgeway, Ohio
Current Conditions -  °F | °C
As of 8:10 PM on Sunday 23 Nov 2014 (Local Time) from KEDJ Reporting Station
Broken Clouds Broken Clouds  
Wind Chill: 50°   Ceiling: 2700
Heat Index: 50°   Visibility: 5mi
Dew Point: 50°   Wind: 22mph
Humidity: 100%   Direction: 130°SE
Pressure: 29.45"   Gusts: 31mph
Location:  40.51°N, 83.57°W
Report Text: KEDJ 240110Z AUTO 13019G27KT 5SM FEW013 SCT019 BKN027 10/10 A2945 RMK AO1 P0003
Loading
Personal Weather Stations






























Interactive Weather Map New forecast layout! Learn more

10-Day Weather Forecast

Advertisements
Track Severe Weather on mobile